Time;durP1;ratioP1;P1;durP2;ratioP2;P2;SDS_P1;SDS_P2;PMS_P1;PMS_P2;Temp;Humidity;BMP_temperature;BMP_pressure;BME280_temperature;BME280_humidity;BME280_pressure;Samples;Min_cycle;Max_cycle;Signal;HPM_P1;HPM_P2
2022/12/09 00:01:13;;;;;;;18.38;13.88;;;2.20;99.90;;;;;;5018425;28;20450;-64
2022/12/09 00:03:39;;;;;;;20.25;13.70;;;2.20;99.90;;;;;;5019792;28;20045;-64
2022/12/09 00:06:11;;;;;;;19.83;14.68;;;2.20;99.90;;;;;;5017575;28;20033;-65
2022/12/09 00:08:37;;;;;;;22.35;15.20;;;2.20;99.90;;;;;;5020972;28;20091;-65
2022/12/09 00:11:03;;;;;;;18.70;13.93;;;2.20;99.90;;;;;;5016965;28;20489;-64
2022/12/09 00:13:28;;;;;;;22.98;15.30;;;2.20;99.90;;;;;;5021595;28;20044;-65
2022/12/09 00:15:55;;;;;;;21.58;15.82;;;2.20;99.90;;;;;;5015495;28;20125;-65
2022/12/09 00:18:21;;;;;;;19.77;15.10;;;2.20;99.90;;;;;;5021799;28;20075;-65
2022/12/09 00:20:46;;;;;;;22.13;15.65;;;2.20;99.90;;;;;;5021231;28;20084;-65
2022/12/09 00:23:12;;;;;;;19.23;15.85;;;2.20;99.90;;;;;;5019924;28;20539;-64
2022/12/09 00:25:38;;;;;;;21.30;14.63;;;2.20;99.90;;;;;;5020301;28;20136;-65
2022/12/09 00:28:04;;;;;;;19.13;15.23;;;2.10;99.90;;;;;;5015991;28;20029;-65
2022/12/09 00:30:29;;;;;;;22.15;14.63;;;2.10;99.90;;;;;;5018746;28;20118;-65
2022/12/09 00:32:55;;;;;;;19.38;13.90;;;2.10;99.90;;;;;;5016003;28;20501;-66
2022/12/09 00:35:22;;;;;;;23.80;15.20;;;2.10;99.90;;;;;;5017803;28;20104;-65
2022/12/09 00:37:47;;;;;;;20.83;14.70;;;2.10;99.90;;;;;;5016889;28;20128;-65
2022/12/09 00:40:13;;;;;;;19.80;14.27;;;2.00;99.90;;;;;;5017506;28;20538;-65
2022/12/09 00:42:39;;;;;;;20.75;15.35;;;1.90;99.90;;;;;;5012252;28;20136;-65
2022/12/09 00:45:06;;;;;;;19.73;15.50;;;1.80;99.90;;;;;;5033693;28;20586;-65
2022/12/09 00:47:33;;;;;;;20.13;14.40;;;1.80;99.90;;;;;;5017796;28;20099;-65
2022/12/09 00:49:58;;;;;;;19.08;14.40;;;1.70;99.90;;;;;;5018365;28;20390;-65
2022/12/09 00:52:24;;;;;;;18.35;13.85;;;1.70;99.90;;;;;;5023198;28;20184;-65
2022/12/09 00:54:50;;;;;;;16.85;14.38;;;1.70;99.90;;;;;;5020465;28;20115;-65
2022/12/09 00:57:16;;;;;;;21.20;15.43;;;1.70;99.90;;;;;;5018206;28;20053;-65
2022/12/09 00:59:41;;;;;;;20.15;14.38;;;1.60;99.90;;;;;;5022932;28;20062;-65
2022/12/09 01:02:07;;;;;;;24.95;14.40;;;1.70;99.90;;;;;;5036405;28;20680;-65
2022/12/09 01:04:33;;;;;;;22.48;15.27;;;1.70;99.90;;;;;;5022388;28;20064;-65
2022/12/09 01:06:59;;;;;;;21.58;15.55;;;1.70;99.90;;;;;;5018374;28;20120;-66
2022/12/09 01:09:25;;;;;;;19.90;14.70;;;1.70;99.90;;;;;;5024166;28;20052;-65
2022/12/09 01:11:50;;;;;;;21.63;16.05;;;1.70;99.90;;;;;;5021963;28;20034;-65
2022/12/09 01:14:16;;;;;;;25.95;16.73;;;1.70;99.90;;;;;;5023019;28;20472;-65
2022/12/09 01:16:42;;;;;;;21.73;16.40;;;1.60;99.90;;;;;;5021675;28;20081;-65
2022/12/09 01:19:11;;;;;;;19.40;15.52;;;1.70;99.90;;;;;;5023659;28;20049;-65
2022/12/09 01:21:37;;;;;;;22.55;16.52;;;1.70;99.90;;;;;;5020923;28;20048;-65
2022/12/09 01:24:10;;;;;;;22.77;15.55;;;1.70;99.90;;;;;;5023283;28;20042;-65
2022/12/09 01:26:36;;;;;;;19.48;15.05;;;1.70;99.90;;;;;;5020106;28;20467;-65
2022/12/09 01:29:03;;;;;;;22.95;16.23;;;1.70;99.90;;;;;;5020728;28;20034;-65
2022/12/09 01:31:28;;;;;;;24.00;16.65;;;1.60;99.90;;;;;;5021922;28;20524;-64
2022/12/09 01:33:55;;;;;;;21.38;15.68;;;1.60;99.90;;;;;;5023464;28;20079;-64
2022/12/09 01:36:24;;;;;;;20.80;15.68;;;1.60;99.90;;;;;;5020373;28;20493;-64
2022/12/09 01:38:50;;;;;;;20.52;15.82;;;1.60;99.90;;;;;;5022113;28;20037;-64
2022/12/09 01:41:18;;;;;;;23.80;16.63;;;1.50;99.90;;;;;;5019441;28;20029;-64
2022/12/09 01:43:45;;;;;;;21.10;14.73;;;1.50;99.90;;;;;;5019636;28;20497;-64
2022/12/09 01:46:10;;;;;;;22.73;15.27;;;1.40;99.90;;;;;;5020690;28;20042;-65
2022/12/09 01:48:40;;;;;;;19.80;14.88;;;1.30;99.90;;;;;;5022022;28;20033;-64
2022/12/09 01:51:12;;;;;;;21.50;15.80;;;1.30;99.90;;;;;;5022854;28;20382;-64
2022/12/09 01:53:43;;;;;;;19.83;13.88;;;1.20;99.90;;;;;;5020948;28;20137;-64
2022/12/09 01:56:15;;;;;;;22.08;14.20;;;1.20;99.90;;;;;;5033192;28;20046;-64
2022/12/09 01:58:42;;;;;;;19.45;15.10;;;1.10;99.90;;;;;;5022377;28;20320;-64
2022/12/09 02:01:08;;;;;;;22.02;16.45;;;1.10;99.90;;;;;;5019197;28;20045;-64
2022/12/09 02:03:33;;;;;;;21.75;15.07;;;1.00;99.90;;;;;;5023488;28;20037;-64
2022/12/09 02:05:59;;;;;;;24.00;16.00;;;1.00;99.90;;;;;;5025403;28;20065;-65
2022/12/09 02:08:25;;;;;;;22.15;16.50;;;0.90;99.90;;;;;;5025995;28;20048;-64
2022/12/09 02:10:59;;;;;;;20.45;15.43;;;0.90;99.90;;;;;;5020692;28;20041;-64
2022/12/09 02:13:45;;;;;;;20.65;14.75;;;0.90;99.90;;;;;;5022384;28;20049;-64
2022/12/09 02:16:16;;;;;;;20.70;14.82;;;0.90;99.90;;;;;;5013633;28;20501;-64
2022/12/09 02:18:57;;;;;;;23.45;15.52;;;0.90;99.90;;;;;;5022926;28;20041;-65
2022/12/09 02:21:30;;;;;;;25.08;15.52;;;0.90;99.90;;;;;;5021407;28;20045;-64
2022/12/09 02:24:21;;;;;;;21.00;14.98;;;0.80;99.90;;;;;;5024577;28;20038;-64
2022/12/09 02:27:44;;;;;;;25.23;15.30;;;0.80;99.90;;;;;;5015028;28;20037;-65
2022/12/09 02:30:22;;;;;;;21.10;15.45;;;0.80;99.90;;;;;;4969894;28;20060;-64
2022/12/09 02:33:29;;;;;;;27.15;15.63;;;0.80;99.90;;;;;;5018490;28;20038;-64
2022/12/09 02:36:24;;;;;;;21.70;15.27;;;0.70;99.90;;;;;;5024555;28;20050;-64
2022/12/09 02:38:51;;;;;;;24.25;14.77;;;0.80;99.90;;;;;;5025145;28;20077;-65
2022/12/09 02:41:28;;;;;;;22.10;15.60;;;0.70;99.90;;;;;;5019257;28;20040;-64
2022/12/09 02:43:58;;;;;;;28.60;15.60;;;0.80;99.90;;;;;;5021336;28;20382;-64
2022/12/09 02:46:26;;;;;;;25.73;15.55;;;0.80;99.90;;;;;;5020047;28;20464;-64
2022/12/09 02:48:57;;;;;;;23.17;16.00;;;0.90;99.90;;;;;;5017888;28;20125;-65
2022/12/09 02:51:25;;;;;;;19.92;14.65;;;0.90;99.90;;;;;;5028069;28;20304;-64
2022/12/09 02:53:55;;;;;;;23.75;15.75;;;0.90;99.90;;;;;;5017800;28;20445;-65
2022/12/09 02:56:22;;;;;;;29.60;15.93;;;0.90;99.90;;;;;;5013046;28;20037;-64
2022/12/09 02:58:49;;;;;;;21.08;14.80;;;0.80;99.90;;;;;;5017592;28;20045;-65
2022/12/09 03:01:28;;;;;;;24.50;15.52;;;0.90;99.90;;;;;;5021186;28;20045;-64
2022/12/09 03:03:54;;;;;;;22.08;14.77;;;0.90;99.90;;;;;;5018207;28;20045;-65
2022/12/09 03:06:26;;;;;;;23.80;16.08;;;1.00;99.90;;;;;;5016567;28;20038;-65
2022/12/09 03:08:59;;;;;;;20.90;15.40;;;0.90;99.90;;;;;;5019683;28;20033;-64
2022/12/09 03:11:26;;;;;;;22.35;15.48;;;1.00;99.90;;;;;;5019220;28;20744;-65
2022/12/09 03:14:11;;;;;;;22.20;15.93;;;1.10;99.90;;;;;;5023239;28;20037;-65
2022/12/09 03:16:53;;;;;;;20.73;14.60;;;1.00;99.90;;;;;;5013442;28;20049;-65
2022/12/09 03:19:25;;;;;;;19.23;14.30;;;1.10;99.90;;;;;;5021150;28;20052;-66
2022/12/09 03:21:55;;;;;;;24.20;15.82;;;1.10;99.90;;;;;;5019670;28;20115;-64
2022/12/09 03:24:27;;;;;;;21.30;13.82;;;1.00;99.90;;;;;;5017058;28;20038;-65
2022/12/09 03:26:53;;;;;;;19.30;13.85;;;1.00;99.90;;;;;;5018799;28;20048;-64
2022/12/09 03:29:23;;;;;;;21.15;14.23;;;1.00;99.90;;;;;;5018430;28;20034;-65
2022/12/09 03:31:51;;;;;;;18.48;13.60;;;1.00;99.90;;;;;;5017177;28;20033;-66
2022/12/09 03:34:21;;;;;;;19.95;13.15;;;1.00;99.90;;;;;;5020162;28;20515;-65
2022/12/09 03:36:50;;;;;;;22.73;15.05;;;1.00;99.90;;;;;;5021099;28;20048;-66
2022/12/09 03:39:20;;;;;;;20.35;14.02;;;0.90;99.90;;;;;;5019776;28;20060;-65
2022/12/09 03:41:54;;;;;;;22.27;14.15;;;0.90;99.90;;;;;;5022237;28;20508;-64
2022/12/09 03:44:34;;;;;;;18.50;13.18;;;0.90;99.90;;;;;;5020276;28;20072;-65
2022/12/09 03:47:00;;;;;;;20.98;14.55;;;0.80;99.90;;;;;;5017126;28;20112;-64
2022/12/09 03:49:25;;;;;;;20.00;14.38;;;0.70;99.90;;;;;;5017607;28;20124;-65
2022/12/09 03:51:59;;;;;;;19.35;13.98;;;0.80;99.90;;;;;;5020187;28;20029;-65
2022/12/09 03:54:31;;;;;;;22.75;13.13;;;0.70;99.90;;;;;;5019216;28;20053;-65
2022/12/09 03:56:57;;;;;;;20.30;14.05;;;0.70;99.90;;;;;;5024719;28;20107;-65
2022/12/09 03:59:28;;;;;;;21.73;14.25;;;0.70;99.90;;;;;;5021431;28;20037;-65
2022/12/09 04:01:54;;;;;;;22.08;13.52;;;0.60;99.90;;;;;;5018031;28;20130;-66
2022/12/09 04:04:21;;;;;;;19.77;13.13;;;0.60;99.90;;;;;;5018974;28;20104;-66
2022/12/09 04:06:49;;;;;;;17.45;13.13;;;0.50;99.90;;;;;;5018538;28;20034;-66
2022/12/09 04:09:15;;;;;;;19.58;13.95;;;0.50;99.90;;;;;;5015707;28;20480;-65
2022/12/09 04:11:40;;;;;;;25.13;14.60;;;0.50;99.90;;;;;;5022652;28;20033;-64
2022/12/09 04:14:06;;;;;;;19.23;13.18;;;0.40;99.90;;;;;;5015941;28;20044;-65
2022/12/09 04:16:32;;;;;;;20.23;14.93;;;0.30;99.90;;;;;;5023276;28;20038;-65
2022/12/09 04:18:57;;;;;;;19.27;13.88;;;0.30;99.90;;;;;;5015926;28;20415;-64
2022/12/09 04:21:23;;;;;;;18.83;13.00;;;0.30;99.90;;;;;;5019893;28;20437;-65
2022/12/09 04:23:49;;;;;;;22.55;15.20;;;0.20;99.90;;;;;;5020924;28;20041;-65
2022/12/09 04:26:20;;;;;;;20.17;13.18;;;0.30;99.90;;;;;;5018807;28;21720;-65
2022/12/09 04:28:46;;;;;;;23.92;14.43;;;0.20;99.90;;;;;;5018404;28;20049;-66
2022/12/09 04:31:13;;;;;;;25.25;15.18;;;0.20;99.90;;;;;;5013790;28;20034;-64
2022/12/09 04:33:39;;;;;;;22.38;15.40;;;0.20;99.90;;;;;;5020678;28;20068;-64
2022/12/09 04:36:11;;;;;;;21.85;15.18;;;0.10;99.90;;;;;;5024277;28;20038;-65
2022/12/09 04:38:37;;;;;;;22.40;14.50;;;0.20;99.90;;;;;;5017700;28;20918;-64
2022/12/09 04:41:03;;;;;;;25.20;15.93;;;0.10;99.90;;;;;;5022168;28;20041;-65
2022/12/09 04:43:29;;;;;;;30.42;16.38;;;0.00;99.90;;;;;;5014153;28;20070;-64
2022/12/09 04:46:00;;;;;;;24.80;15.77;;;0.00;99.90;;;;;;5018693;28;20461;-65
2022/12/09 04:48:25;;;;;;;24.63;14.40;;;-0.10;99.90;;;;;;5023299;28;20033;-64
2022/12/09 04:50:51;;;;;;;27.60;16.02;;;0.00;99.90;;;;;;5017631;28;20513;-65
2022/12/09 04:53:17;;;;;;;21.60;15.10;;;-0.10;99.90;;;;;;5023582;28;20561;-65
2022/12/09 04:55:43;;;;;;;24.58;15.57;;;-0.10;99.90;;;;;;5020867;28;20038;-64
2022/12/09 04:58:08;;;;;;;21.08;13.85;;;-0.20;99.90;;;;;;5026839;28;20513;-65
2022/12/09 05:00:34;;;;;;;25.50;15.43;;;-0.20;99.90;;;;;;5027634;28;20037;-65
2022/12/09 05:03:00;;;;;;;22.67;14.90;;;-0.30;99.90;;;;;;5023645;28;20049;-64
2022/12/09 05:05:25;;;;;;;27.23;15.52;;;-0.30;99.90;;;;;;5022568;28;20037;-65
2022/12/09 05:07:51;;;;;;;22.63;14.55;;;-0.30;99.90;;;;;;5016536;28;20151;-64
2022/12/09 05:10:17;;;;;;;28.27;16.38;;;-0.40;99.90;;;;;;5025823;28;20124;-65
2022/12/09 05:12:42;;;;;;;29.20;14.68;;;-0.40;99.90;;;;;;5021773;28;20044;-65
2022/12/09 05:15:08;;;;;;;28.30;15.15;;;-0.50;99.90;;;;;;5024606;28;20414;-65
2022/12/09 05:17:34;;;;;;;27.67;15.50;;;-0.50;99.90;;;;;;5023827;28;20378;-65
2022/12/09 05:20:00;;;;;;;20.42;13.75;;;-0.60;99.90;;;;;;5018715;28;20045;-65
2022/12/09 05:22:26;;;;;;;26.00;15.48;;;-0.60;99.90;;;;;;5017949;28;20527;-65
2022/12/09 05:24:51;;;;;;;27.33;15.75;;;-0.70;99.90;;;;;;5022027;28;20143;-65
2022/12/09 05:27:17;;;;;;;23.48;14.80;;;-0.70;99.90;;;;;;5012856;28;20033;-65
2022/12/09 05:29:43;;;;;;;25.60;15.07;;;-0.70;99.90;;;;;;5021938;28;20085;-64
2022/12/09 05:32:09;;;;;;;24.98;15.52;;;-0.70;99.90;;;;;;5018440;28;20049;-65
2022/12/09 05:34:34;;;;;;;27.00;15.90;;;-0.80;99.90;;;;;;5014771;28;20116;-65
2022/12/09 05:37:00;;;;;;;30.63;16.80;;;-0.80;99.90;;;;;;5017094;28;20183;-64
2022/12/09 05:39:26;;;;;;;29.00;16.90;;;-0.70;99.90;;;;;;5015565;28;20038;-66
2022/12/09 05:41:51;;;;;;;25.15;15.73;;;-0.80;99.90;;;;;;5016817;28;20033;-64
2022/12/09 05:44:17;;;;;;;31.13;17.55;;;-0.80;99.90;;;;;;5020155;28;20545;-65
2022/12/09 05:46:43;;;;;;;30.30;15.75;;;-0.80;99.90;;;;;;5018585;28;20045;-65
2022/12/09 05:49:08;;;;;;;25.13;15.85;;;-0.80;99.90;;;;;;5014631;28;20061;-65
2022/12/09 05:51:34;;;;;;;28.67;16.30;;;-0.80;99.90;;;;;;5016605;28;20160;-64
2022/12/09 05:54:02;;;;;;;28.23;15.93;;;-0.90;99.90;;;;;;5014503;28;20386;-65
2022/12/09 05:56:28;;;;;;;27.55;16.73;;;-0.90;99.90;;;;;;5014903;28;20049;-65
2022/12/09 05:58:54;;;;;;;27.67;16.63;;;-0.90;99.90;;;;;;5016055;28;20041;-66
2022/12/09 06:01:21;;;;;;;28.40;16.00;;;-0.90;99.90;;;;;;5013487;28;20045;-65
2022/12/09 06:03:51;;;;;;;28.60;16.35;;;-1.00;99.90;;;;;;5012927;28;20041;-65
2022/12/09 06:06:18;;;;;;;28.77;16.60;;;-1.00;99.90;;;;;;5019183;28;22336;-64
2022/12/09 06:08:44;;;;;;;27.88;15.93;;;-0.90;99.90;;;;;;5016353;28;20033;-64
2022/12/09 06:11:18;;;;;;;26.80;16.75;;;-0.90;99.90;;;;;;5021567;28;20041;-65
2022/12/09 06:13:45;;;;;;;26.60;16.33;;;-1.00;99.90;;;;;;5016586;28;20402;-65
2022/12/09 06:16:11;;;;;;;27.13;15.68;;;-1.10;99.90;;;;;;5016458;28;20048;-65
2022/12/09 06:18:37;;;;;;;26.20;16.67;;;-1.10;99.90;;;;;;5019528;28;20561;-64
2022/12/09 06:21:07;;;;;;;27.20;15.90;;;-1.10;99.90;;;;;;5017979;28;20401;-65
2022/12/09 06:23:35;;;;;;;32.88;17.10;;;-1.20;99.90;;;;;;5017570;28;20398;-65
2022/12/09 06:26:02;;;;;;;26.70;16.83;;;-1.20;99.90;;;;;;5016544;28;20080;-64
2022/12/09 06:28:28;;;;;;;25.63;15.82;;;-1.20;99.90;;;;;;5018276;28;20084;-65
2022/12/09 06:30:53;;;;;;;29.65;17.60;;;-1.20;99.90;;;;;;5019597;28;20125;-65
2022/12/09 06:33:19;;;;;;;28.48;16.35;;;-1.20;99.90;;;;;;5021106;28;20567;-64
2022/12/09 06:35:45;;;;;;;24.75;16.20;;;-1.20;99.90;;;;;;5019785;28;20068;-64
2022/12/09 06:38:10;;;;;;;24.83;15.63;;;-1.20;99.90;;;;;;5019474;28;20048;-64
2022/12/09 06:40:40;;;;;;;25.70;16.13;;;-1.30;99.90;;;;;;5022853;28;20512;-64
2022/12/09 06:43:06;;;;;;;29.80;17.20;;;-1.30;99.90;;;;;;5019920;28;20057;-65
2022/12/09 06:45:32;;;;;;;26.38;15.35;;;-1.40;99.90;;;;;;5037167;28;20037;-64
2022/12/09 06:47:58;;;;;;;25.27;15.48;;;-1.40;99.90;;;;;;5014587;28;20100;-64
2022/12/09 06:50:23;;;;;;;31.67;15.90;;;-1.40;99.90;;;;;;5016807;28;20457;-64
2022/12/09 06:52:49;;;;;;;26.83;15.73;;;-1.40;99.90;;;;;;5019461;28;20042;-63
2022/12/09 06:55:15;;;;;;;25.15;15.32;;;-1.40;99.90;;;;;;5013870;28;20063;-64
2022/12/09 06:57:40;;;;;;;28.08;16.70;;;-1.40;99.90;;;;;;5016926;28;20077;-64
2022/12/09 07:00:07;;;;;;;26.38;15.52;;;-1.40;99.90;;;;;;5017259;28;20461;-65
2022/12/09 07:02:33;;;;;;;27.05;16.70;;;-1.50;99.90;;;;;;5015669;28;20496;-64
2022/12/09 07:04:59;;;;;;;27.58;16.35;;;-1.40;99.90;;;;;;5016723;28;20040;-64
2022/12/09 07:07:25;;;;;;;32.50;17.00;;;-1.50;99.90;;;;;;5018992;28;20557;-63
2022/12/09 07:09:51;;;;;;;32.45;17.38;;;-1.50;99.90;;;;;;5018979;28;20041;-65
2022/12/09 07:12:17;;;;;;;28.40;16.70;;;-1.50;99.90;;;;;;5021531;28;20052;-64
2022/12/09 07:14:42;;;;;;;28.40;17.40;;;-1.60;99.90;;;;;;5017461;28;20072;-64
2022/12/09 07:17:17;;;;;;;31.92;16.88;;;-1.60;99.90;;;;;;5019299;28;20442;-65
2022/12/09 07:19:43;;;;;;;34.75;19.33;;;-1.60;99.90;;;;;;5016979;28;20535;-64
2022/12/09 07:22:09;;;;;;;31.48;17.58;;;-1.60;99.90;;;;;;5017775;28;20045;-64
2022/12/09 07:24:38;;;;;;;28.45;16.75;;;-1.70;99.90;;;;;;5016018;28;20046;-63
2022/12/09 07:27:06;;;;;;;29.65;18.40;;;-1.70;99.90;;;;;;5015170;28;20073;-64
2022/12/09 07:29:33;;;;;;;30.92;19.20;;;-1.70;99.90;;;;;;5019849;28;20033;-64
2022/12/09 07:31:58;;;;;;;27.35;17.23;;;-1.70;99.90;;;;;;5016405;28;20144;-64
2022/12/09 07:34:24;;;;;;;29.23;17.50;;;-1.70;99.90;;;;;;5020788;28;20121;-64
2022/12/09 07:36:50;;;;;;;26.70;17.05;;;-1.70;99.90;;;;;;5017084;28;20044;-64
2022/12/09 07:39:17;;;;;;;29.48;18.35;;;-1.70;99.90;;;;;;5020758;28;21486;-65
2022/12/09 07:41:43;;;;;;;28.98;19.20;;;-1.80;99.90;;;;;;5017556;28;20041;-64
2022/12/09 07:44:10;;;;;;;31.23;19.02;;;-1.80;99.90;;;;;;5015060;28;20052;-64
2022/12/09 07:46:37;;;;;;;31.60;19.88;;;-1.70;99.90;;;;;;5018944;28;20133;-64
2022/12/09 07:49:04;;;;;;;30.02;18.63;;;-1.80;99.90;;;;;;5018713;28;20029;-64
2022/12/09 07:51:31;;;;;;;34.60;19.38;;;-1.80;99.90;;;;;;5021164;28;20116;-65
2022/12/09 07:53:56;;;;;;;32.63;19.48;;;-1.80;99.90;;;;;;5019180;28;20148;-64
2022/12/09 07:56:23;;;;;;;29.55;19.10;;;-1.80;99.90;;;;;;5019189;28;20069;-64
2022/12/09 07:58:52;;;;;;;34.00;20.38;;;-1.80;99.90;;;;;;5017640;28;20117;-64
2022/12/09 08:01:20;;;;;;;32.55;18.88;;;-1.80;99.90;;;;;;5016342;28;20080;-64
2022/12/09 08:03:47;;;;;;;35.60;20.00;;;-1.80;99.90;;;;;;5020194;28;20297;-65
2022/12/09 08:06:18;;;;;;;32.92;19.48;;;-1.70;99.90;;;;;;5017220;28;20103;-65
2022/12/09 08:08:44;;;;;;;35.75;19.80;;;-1.70;99.90;;;;;;5023288;28;20029;-64
2022/12/09 08:11:12;;;;;;;36.15;20.25;;;-1.70;99.90;;;;;;5025989;28;20059;-64
2022/12/09 08:13:38;;;;;;;36.35;21.02;;;-1.60;99.90;;;;;;5018250;28;20623;-64
2022/12/09 08:16:05;;;;;;;36.95;20.13;;;-1.60;99.90;;;;;;5018667;28;20128;-64
2022/12/09 08:18:32;;;;;;;33.90;20.63;;;-1.50;99.90;;;;;;5036669;28;20125;-64
2022/12/09 08:20:58;;;;;;;43.50;21.83;;;-1.50;99.90;;;;;;5018758;28;20377;-65
2022/12/09 08:23:24;;;;;;;36.30;21.98;;;-1.50;99.90;;;;;;5019590;28;20038;-64
2022/12/09 08:25:54;;;;;;;34.60;20.08;;;-1.40;99.90;;;;;;5021448;28;20469;-65
2022/12/09 08:28:20;;;;;;;39.83;21.42;;;-1.40;99.90;;;;;;5013345;28;20042;-66
2022/12/09 08:30:46;;;;;;;32.50;20.77;;;-1.40;99.90;;;;;;5022326;28;20504;-65
2022/12/09 08:33:11;;;;;;;37.95;22.17;;;-1.30;99.90;;;;;;5018714;28;20045;-65
2022/12/09 08:35:37;;;;;;;40.70;23.23;;;-1.30;99.90;;;;;;5020189;28;20041;-65
2022/12/09 08:38:03;;;;;;;42.63;24.05;;;-1.30;99.90;;;;;;5017885;28;20048;-65
2022/12/09 08:40:29;;;;;;;43.00;23.58;;;-1.20;99.90;;;;;;5018042;28;20471;-65
2022/12/09 08:42:54;;;;;;;50.72;24.75;;;-1.00;99.90;;;;;;5014793;28;20133;-66
2022/12/09 08:45:20;;;;;;;46.38;24.02;;;-0.90;99.90;;;;;;5013886;28;20096;-65
2022/12/09 08:47:46;;;;;;;44.13;24.10;;;-0.90;99.90;;;;;;4997304;28;20125;-65
2022/12/09 08:50:12;;;;;;;48.75;24.58;;;-0.80;99.90;;;;;;5017323;28;20172;-65
2022/12/09 08:52:38;;;;;;;46.03;23.92;;;-0.80;99.90;;;;;;5010743;28;20049;-66
2022/12/09 08:55:05;;;;;;;52.95;26.85;;;-0.80;99.90;;;;;;5009970;28;20116;-66
2022/12/09 08:57:30;;;;;;;86.88;31.70;;;-0.70;99.90;;;;;;5014877;28;20049;-66
2022/12/09 08:59:56;;;;;;;78.10;31.23;;;-0.60;99.90;;;;;;5017508;28;20034;-67
2022/12/09 09:02:22;;;;;;;116.18;34.67;;;-0.50;99.90;;;;;;5021435;28;20099;-66
2022/12/09 09:04:47;;;;;;;134.18;36.67;;;-0.30;99.90;;;;;;5017548;28;20045;-65
2022/12/09 09:07:13;;;;;;;130.23;36.80;;;-0.40;99.90;;;;;;5021812;28;20033;-66
2022/12/09 09:09:39;;;;;;;219.93;39.58;;;-0.30;99.90;;;;;;5021730;28;20034;-66
2022/12/09 09:12:06;;;;;;;352.45;42.03;;;-0.20;99.90;;;;;;5020641;28;20426;-66
2022/12/09 09:14:32;;;;;;;260.23;39.70;;;-0.10;99.90;;;;;;5020012;28;20055;-66
2022/12/09 09:16:58;;;;;;;291.40;40.30;;;-0.10;99.90;;;;;;5018592;28;20072;-67
2022/12/09 09:19:25;;;;;;;421.13;46.70;;;0.00;99.90;;;;;;5020413;28;20041;-65
2022/12/09 09:21:52;;;;;;;248.52;36.78;;;0.00;99.90;;;;;;5023248;28;20493;-66
2022/12/09 09:24:21;;;;;;;334.58;40.25;;;0.00;99.90;;;;;;5018792;28;20048;-65
2022/12/09 09:26:48;;;;;;;427.90;47.67;;;0.10;99.90;;;;;;5020958;28;20068;-66
2022/12/09 09:29:15;;;;;;;441.23;47.75;;;0.20;99.90;;;;;;5017339;28;20041;-65
2022/12/09 09:31:41;;;;;;;229.20;37.55;;;0.30;99.90;;;;;;5023874;28;20397;-66
2022/12/09 09:34:07;;;;;;;316.60;42.92;;;0.30;99.90;;;;;;5021889;28;20041;-66
2022/12/09 09:36:33;;;;;;;243.40;38.78;;;0.30;99.90;;;;;;5019222;28;20108;-66
2022/12/09 09:38:58;;;;;;;315.15;40.45;;;0.30;99.90;;;;;;5019455;28;20121;-66
2022/12/09 09:41:27;;;;;;;323.52;42.78;;;0.30;99.90;;;;;;5021260;28;20029;-66
2022/12/09 09:43:54;;;;;;;211.45;39.20;;;0.40;99.90;;;;;;5015671;28;20127;-66
2022/12/09 09:46:30;;;;;;;241.23;38.58;;;0.40;99.90;;;;;;5020504;28;20164;-66
2022/12/09 09:48:57;;;;;;;260.60;42.05;;;0.50;99.90;;;;;;5019939;28;20514;-66
2022/12/09 09:51:23;;;;;;;252.35;40.15;;;0.50;99.90;;;;;;5017207;28;20397;-66
2022/12/09 09:53:50;;;;;;;159.02;36.00;;;0.50;99.90;;;;;;5022574;28;20057;-64
2022/12/09 09:56:33;;;;;;;229.15;39.35;;;0.50;99.90;;;;;;5026806;28;20053;-66
2022/12/09 09:59:07;;;;;;;113.88;33.28;;;0.60;99.90;;;;;;5021733;28;20120;-65
2022/12/09 10:01:35;;;;;;;219.73;36.92;;;0.60;99.90;;;;;;5022506;28;20117;-65
2022/12/09 10:04:13;;;;;;;329.10;45.03;;;0.60;99.90;;;;;;5022911;28;20438;-65
2022/12/09 10:06:54;;;;;;;125.53;35.08;;;0.60;99.90;;;;;;5021527;28;20444;-65
2022/12/09 10:09:42;;;;;;;203.80;35.92;;;0.70;99.90;;;;;;5022113;28;20045;-65
2022/12/09 10:12:50;;;;;;;176.95;38.13;;;0.80;99.90;;;;;;5022626;28;20036;-64
2022/12/09 10:15:21;;;;;;;179.20;38.78;;;0.80;99.90;;;;;;5020028;28;20057;-64
2022/12/09 10:17:57;;;;;;;257.13;43.50;;;0.80;99.90;;;;;;5020680;28;20041;-65
2022/12/09 10:20:29;;;;;;;120.38;34.53;;;0.90;99.90;;;;;;5019600;28;20045;-64
2022/12/09 10:22:58;;;;;;;125.50;34.67;;;0.90;99.90;;;;;;5022238;28;20401;-63
2022/12/09 10:25:26;;;;;;;155.10;37.85;;;1.00;99.90;;;;;;5022783;28;20053;-65
2022/12/09 10:28:16;;;;;;;149.73;36.83;;;0.90;99.90;;;;;;5025125;28;20035;-63
2022/12/09 10:30:42;;;;;;;159.05;36.72;;;0.90;99.90;;;;;;5028762;28;20427;-64
2022/12/09 10:33:12;;;;;;;82.13;31.95;;;0.90;99.90;;;;;;5019822;28;20124;-65
2022/12/09 10:35:38;;;;;;;103.63;33.97;;;0.90;99.90;;;;;;5024860;28;20492;-64
2022/12/09 10:38:10;;;;;;;194.77;39.10;;;0.90;99.90;;;;;;5023510;28;20041;-64
2022/12/09 10:40:43;;;;;;;205.05;40.25;;;1.00;99.90;;;;;;5022489;28;20034;-65
2022/12/09 10:43:33;;;;;;;159.10;37.80;;;1.00;99.90;;;;;;5020122;28;20091;-64
2022/12/09 10:46:01;;;;;;;243.57;42.80;;;1.00;99.90;;;;;;5019762;28;20103;-64
2022/12/09 10:48:30;;;;;;;182.60;37.40;;;1.00;99.90;;;;;;5019166;28;20045;-64
2022/12/09 10:50:59;;;;;;;158.68;35.45;;;1.00;99.90;;;;;;5024931;28;20070;-64
2022/12/09 10:53:25;;;;;;;180.60;38.88;;;1.00;99.90;;;;;;5018245;28;20107;-64
2022/12/09 10:55:54;;;;;;;284.45;42.80;;;1.00;99.90;;;;;;5023216;28;20065;-64
2022/12/09 10:58:28;;;;;;;138.63;34.97;;;0.90;99.90;;;;;;5019190;28;20100;-66
2022/12/09 11:01:09;;;;;;;120.47;34.65;;;1.00;99.90;;;;;;5027330;28;20556;-65
2022/12/09 11:03:39;;;;;;;87.28;32.75;;;0.90;99.90;;;;;;5019895;28;20129;-65
2022/12/09 11:06:17;;;;;;;79.30;33.55;;;1.00;99.90;;;;;;5024919;28;20087;-64
2022/12/09 11:08:59;;;;;;;163.05;38.58;;;1.00;99.90;;;;;;5022982;28;20036;-65
2022/12/09 11:11:43;;;;;;;161.00;36.63;;;1.00;99.90;;;;;;5022876;28;20060;-64
2022/12/09 11:14:37;;;;;;;216.25;40.17;;;1.00;99.90;;;;;;5019279;28;20041;-64
2022/12/09 11:17:17;;;;;;;166.38;37.20;;;1.00;99.90;;;;;;5019929;28;20100;-63
2022/12/09 11:19:48;;;;;;;159.52;38.15;;;1.10;99.90;;;;;;5021787;28;20045;-64
2022/12/09 11:22:31;;;;;;;105.40;33.70;;;1.10;99.90;;;;;;5021184;28;20065;-65
2022/12/09 11:25:16;;;;;;;81.88;32.47;;;1.10;99.90;;;;;;5019412;28;20493;-65
2022/12/09 11:27:58;;;;;;;91.03;32.67;;;1.20;99.90;;;;;;5021749;28;20073;-64
2022/12/09 11:30:47;;;;;;;77.35;31.95;;;1.20;99.90;;;;;;5019151;28;20037;-64
2022/12/09 11:33:13;;;;;;;75.18;30.30;;;1.20;99.90;;;;;;5017424;28;20056;-65
2022/12/09 11:35:44;;;;;;;119.80;33.95;;;1.30;99.90;;;;;;5023888;28;20033;-66
2022/12/09 11:38:32;;;;;;;70.88;31.23;;;1.30;99.90;;;;;;5035823;28;20045;-64
2022/12/09 11:42:12;;;;;;;77.13;31.52;;;1.40;99.90;;;;;;5018032;28;20049;-64
2022/12/09 11:44:13;;;;;;;83.68;31.80;;;1.40;99.90;;;;;;5018358;28;20463;-65
2022/12/09 11:46:39;;;;;;;89.88;32.55;;;1.40;99.90;;;;;;5020442;28;20073;-65
2022/12/09 11:49:12;;;;;;;65.47;30.65;;;1.50;99.90;;;;;;5017203;28;20458;-64
2022/12/09 11:51:45;;;;;;;81.40;31.10;;;1.50;99.90;;;;;;5018282;28;20052;-65
2022/12/09 11:54:23;;;;;;;54.95;28.17;;;1.60;99.90;;;;;;5019454;28;20061;-64
2022/12/09 11:56:50;;;;;;;76.50;29.80;;;1.60;99.90;;;;;;5019374;28;20049;-65
2022/12/09 11:59:21;;;;;;;68.03;29.50;;;1.70;99.90;;;;;;5018042;28;20057;-65
2022/12/09 12:01:56;;;;;;;66.63;30.70;;;1.80;99.90;;;;;;5019154;28;20072;-65
2022/12/09 12:04:29;;;;;;;57.80;29.20;;;1.70;99.90;;;;;;5019918;28;20057;-65
2022/12/09 12:07:02;;;;;;;57.60;28.73;;;1.70;99.90;;;;;;5019788;28;20075;-65
2022/12/09 12:09:40;;;;;;;54.55;28.73;;;1.90;99.90;;;;;;5023497;28;20447;-64
2022/12/09 12:12:42;;;;;;;64.85;29.65;;;2.00;99.90;;;;;;5019608;28;20482;-65
2022/12/09 12:15:25;;;;;;;54.63;28.40;;;2.10;99.90;;;;;;5018737;28;20042;-64
2022/12/09 12:17:59;;;;;;;51.30;29.58;;;2.00;99.90;;;;;;5019977;28;20105;-66
2022/12/09 12:20:41;;;;;;;50.85;28.80;;;2.00;99.90;;;;;;5018083;28;20061;-65
2022/12/09 12:23:13;;;;;;;54.28;28.60;;;2.00;99.90;;;;;;5022805;28;20125;-65
2022/12/09 12:25:53;;;;;;;55.78;29.83;;;1.90;99.90;;;;;;5022487;28;20140;-66
2022/12/09 12:28:36;;;;;;;45.38;26.92;;;2.00;99.90;;;;;;5019206;28;20029;-65
2022/12/09 12:31:32;;;;;;;46.33;27.85;;;2.00;99.90;;;;;;5015257;28;20089;-65
2022/12/09 12:34:14;;;;;;;52.20;28.92;;;2.10;99.90;;;;;;5012736;28;20060;-65
2022/12/09 12:37:11;;;;;;;51.92;29.98;;;2.10;99.90;;;;;;5017169;28;20049;-65
2022/12/09 12:40:06;;;;;;;48.47;29.17;;;2.10;99.90;;;;;;5017035;28;20117;-64
2022/12/09 12:46:17;;;;;;;56.35;29.80;;;2.00;99.90;;;;;;5013672;28;20049;-65
2022/12/09 12:49:12;;;;;;;49.10;29.03;;;2.10;99.90;;;;;;5015641;28;20553;-65